| time (UTC) | temp C | wind direction | speed KPH | gust KPH | rain 1hr cm | rain 24hr cm | rain mn cm | humidity % | barometer mb |
| 20260906113011 | 16 | 258 | 0.0 | 0.0 | 0.00 | 1.85 | 0.00 | 95 | 1017.0 |
| 20260906111523 | 16 | 257 | 0.0 | 1.6 | 0.00 | 1.85 | 0.00 | 95 | 1016.8 |
| 20260906110021 | 16 | 265 | 0.0 | 0.0 | 0.00 | 1.85 | 0.00 | 95 | 1016.4 |
| 20260906104521 | 16 | 265 | 0.0 | 0.0 | 0.00 | 1.85 | 0.00 | 95 | 1016.2 |
| 20260906103025 | 16 | 265 | 0.0 | 0.0 | 0.00 | 1.85 | 0.00 | 95 | 1015.9 |
| 20260906101510 | 16 | 253 | 1.6 | 3.2 | 0.00 | 1.85 | 0.00 | 95 | 1015.8 |
| 20260906100014 | 16 | 269 | 0.0 | 1.6 | 0.00 | 1.85 | 0.00 | 95 | 1015.7 |
| 20260906094519 | 16 | 281 | 0.0 | 1.6 | 0.00 | 1.85 | 0.00 | 95 | 1015.7 |
| 20260906093025 | 16 | 294 | 0.0 | 0.0 | 0.00 | 1.85 | 0.00 | 95 | 1015.7 |
| 20260906091533 | 16 | 295 | 1.6 | 4.8 | 0.00 | 1.85 | 0.00 | 95 | 1015.8 |
| 20260906090012 | 16 | 260 | 1.6 | 3.2 | 0.00 | 1.85 | 0.00 | 95 | 1015.5 |
| 20260906084517 | 16 | 259 | 0.0 | 0.0 | 0.00 | 1.85 | 0.00 | 94 | 1015.7 |
| 20260906083032 | 16 | 260 | 0.0 | 0.0 | 0.00 | 1.85 | 0.00 | 95 | 1015.7 |
| 20260906081529 | 16 | 260 | 0.0 | 0.0 | 0.00 | 1.85 | 0.00 | 94 | 1015.6 |
| 20260906080032 | 17 | 262 | 0.0 | 1.6 | 0.00 | 1.85 | 0.00 | 94 | 1015.6 |
| 20260906074512 | 17 | 280 | 0.0 | 0.0 | 0.00 | 1.85 | 0.00 | 94 | 1015.4 |
| 20260906073021 | 17 | 279 | 0.0 | 3.2 | 0.00 | 1.85 | 0.00 | 94 | 1015.5 |
| 20260906071524 | 17 | 281 | 0.0 | 1.6 | 0.00 | 1.85 | 0.00 | 94 | 1015.4 |
| 20260906070031 | 17 | 251 | 0.0 | 3.2 | 0.00 | 1.85 | 0.00 | 94 | 1015.6 |
| 20260906064530 | 17 | 290 | 0.0 | 0.0 | 0.00 | 1.85 | 0.00 | 94 | 1015.7 |
| 20260906063017 | 17 | 274 | 0.0 | 0.0 | 0.00 | 1.85 | 0.00 | 94 | 1015.9 |
| 20260906061526 | 17 | 278 | 0.0 | 0.0 | 0.00 | 1.85 | 0.00 | 94 | 1015.9 |
| 20260906060006 | 17 | 274 | 0.0 | 0.0 | 0.00 | 1.85 | 0.00 | 94 | 1016.2 |
| 20260906054509 | 17 | 274 | 0.0 | 0.0 | 0.00 | 1.85 | 0.00 | 94 | 1016.2 |
| 20260906053014 | 17 | 275 | 0.0 | 1.6 | 0.00 | 1.85 | 0.00 | 93 | 1016.2 |
| 20260906051520 | 18 | 265 | 0.0 | 3.2 | 0.00 | 1.85 | 0.00 | 94 | 1016.2 |
| 20260906050006 | 18 | 262 | 0.0 | 1.6 | 0.00 | 1.85 | 0.00 | 94 | 1016.1 |
| 20260906044505 | 18 | 237 | 0.0 | 0.0 | 0.00 | 1.85 | 0.00 | 94 | 1016.0 |
| 20260906043009 | 18 | 237 | 0.0 | 0.0 | 0.00 | 1.85 | 0.00 | 94 | 1016.0 |
| 20260906041516 | 18 | 198 | 0.0 | 0.0 | 0.00 | 1.85 | 0.00 | 93 | 1016.2 |
| 20260906040023 | 17 | 254 | 0.0 | 3.2 | 0.00 | 1.85 | 0.00 | 93 | 1016.4 |
| 20260906034506 | 18 | 259 | 0.0 | 0.0 | 0.00 | 1.85 | 1.85 | 93 | 1016.6 |
| 20260906033018 | 18 | 255 | 0.0 | 0.0 | 0.00 | 1.85 | 1.85 | 93 | 1016.7 |
| 20260906031509 | 18 | 251 | 0.0 | 0.0 | 0.00 | 1.85 | 1.85 | 93 | 1017.0 |
| 20260906030021 | 18 | 251 | 0.0 | 0.0 | 0.00 | 1.85 | 1.85 | 93 | 1017.0 |
| 20260906024525 | 17 | 251 | 0.0 | 0.0 | 0.00 | 1.85 | 1.85 | 92 | 1016.9 |
| 20260906023005 | 17 | 251 | 0.0 | 0.0 | 0.00 | 1.85 | 1.85 | 92 | 1016.7 |
| 20260906021508 | 17 | 251 | 0.0 | 0.0 | 0.00 | 1.85 | 1.85 | 92 | 1016.7 |
| 20260906020014 | 17 | 244 | 0.0 | 0.0 | 0.00 | 1.85 | 1.85 | 91 | 1016.6 |
| 20260906014526 | 18 | 244 | 0.0 | 0.0 | 0.00 | 1.85 | 1.85 | 91 | 1016.5 |
| 20260906013031 | 18 | 244 | 0.0 | 1.6 | 0.00 | 1.85 | 1.85 | 91 | 1016.3 |
| 20260906011505 | 18 | 244 | 0.0 | 0.0 | 0.00 | 1.85 | 1.85 | 90 | 1016.0 |
| 20260906010010 | 18 | 244 | 0.0 | 0.0 | 0.00 | 1.85 | 1.85 | 89 | 1015.8 |
| 20260906004516 | 19 | 244 | 0.0 | 0.0 | 0.00 | 1.85 | 1.85 | 89 | 1015.7 |
| 20260906003021 | 20 | 244 | 0.0 | 0.0 | 0.00 | 1.85 | 1.85 | 88 | 1015.6 |
| 20260906001525 | 20 | 244 | 1.6 | 3.2 | 0.00 | 1.85 | 1.85 | 87 | 1015.8 |
| 20260906000026 | 21 | 244 | 0.0 | 1.6 | 0.00 | 1.85 | 1.85 | 85 | 1015.6 |
| 20260905234509 | 21 | 244 | 0.0 | 1.6 | 0.00 | 1.85 | 1.85 | 83 | 1015.7 |
| 20260905233019 | 22 | 242 | 1.6 | 4.8 | 0.00 | 1.85 | 1.85 | 80 | 1015.6 |
| 20260905231525 | 23 | 269 | 1.6 | 4.8 | 0.00 | 1.85 | 1.85 | 75 | 1015.8 |
| 20260905230027 | 24 | 288 | 3.2 | 8.0 | 0.00 | 1.85 | 1.85 | 72 | 1015.7 |
| 20260905224508 | 24 | 271 | 1.6 | 11.3 | 0.00 | 1.85 | 1.85 | 72 | 1015.8 |
| 20260905223016 | 25 | 237 | 3.2 | 8.0 | 0.00 | 1.85 | 1.85 | 71 | 1015.9 |
| 20260905221519 | 25 | 265 | 4.8 | 9.7 | 0.00 | 1.85 | 1.85 | 69 | 1015.7 |
| 20260905220029 | 25 | 279 | 4.8 | 9.7 | 0.00 | 1.85 | 1.85 | 69 | 1015.1 |
| 20260905214529 | 25 | 318 | 3.2 | 11.3 | 0.00 | 1.85 | 1.85 | 68 | 1015.1 |
| 20260905213011 | 26 | 312 | 3.2 | 11.3 | 0.00 | 1.85 | 1.85 | 66 | 1015.0 |
| 20260905211516 | 26 | 320 | 6.4 | 14.5 | 0.00 | 1.85 | 1.85 | 64 | 1014.9 |
| 20260905210022 | 26 | 33 | 4.8 | 14.5 | 0.00 | 1.85 | 1.85 | 64 | 1014.7 |
| 20260905204535 | 26 | 37 | 3.2 | 16.1 | 0.00 | 1.85 | 1.85 | 65 | 1014.6 |
| 20260905203031 | 27 | 314 | 4.8 | 12.9 | 0.00 | 1.85 | 1.85 | 65 | 1014.7 |
| 20260905201514 | 26 | 274 | 8.0 | 19.3 | 0.00 | 1.85 | 1.85 | 65 | 1014.7 |
| 20260905200026 | 26 | 281 | 3.2 | 11.3 | 0.00 | 1.85 | 1.85 | 66 | 1014.7 |
| 20260905194524 | 26 | 310 | 6.4 | 14.5 | 0.00 | 1.85 | 1.85 | 66 | 1014.8 |
| 20260905193029 | 26 | 283 | 3.2 | 17.7 | 0.00 | 1.85 | 1.85 | 67 | 1015.3 |
| 20260905191530 | 26 | 60 | 4.8 | 20.9 | 0.00 | 1.85 | 1.85 | 65 | 1015.4 |
| 20260905190016 | 26 | 259 | 4.8 | 17.7 | 0.00 | 1.85 | 1.85 | 67 | 1015.9 |
| 20260905184542 | 26 | 29 | 4.8 | 14.5 | 0.00 | 1.85 | 1.85 | 67 | 1016.1 |
| 20260905183040 | 25 | 35 | 3.2 | 12.9 | 0.00 | 1.85 | 1.85 | 68 | 1016.2 |
| 20260905181537 | 25 | 283 | 4.8 | 12.9 | 0.00 | 1.85 | 1.85 | 69 | 1016.1 |
| 20260905180011 | 24 | 259 | 3.2 | 17.7 | 0.00 | 1.85 | 1.85 | 75 | 1016.4 |
| 20260905174517 | 24 | 236 | 3.2 | 16.1 | 0.00 | 1.85 | 1.85 | 73 | 1016.7 |
| 20260905173004 | 24 | 277 | 6.4 | 16.1 | 0.00 | 1.85 | 1.85 | 74 | 1017.1 |
| 20260905171508 | 24 | 285 | 8.0 | 16.1 | 0.00 | 1.85 | 1.85 | 74 | 1017.0 |
| 20260905170008 | 23 | 22 | 0.0 | 6.4 | 0.00 | 1.85 | 1.85 | 80 | 1017.2 |
| 20260905164518 | 23 | 241 | 3.2 | 4.8 | 0.00 | 1.85 | 1.85 | 80 | 1017.1 |
| 20260905163018 | 22 | 231 | 1.6 | 4.8 | 0.00 | 1.85 | 1.85 | 82 | 1017.1 |
| 20260905161504 | 21 | 47 | 1.6 | 8.0 | 0.00 | 1.85 | 1.85 | 86 | 1017.3 |
| 20260905160006 | 21 | 291 | 1.6 | 4.8 | 0.03 | 1.85 | 1.85 | 87 | 1016.8 |
| 20260905154512 | 20 | 230 | 0.0 | 4.8 | 0.03 | 1.85 | 1.85 | 90 | 1016.8 |
| 20260905153018 | 20 | 244 | 0.0 | 4.8 | 0.03 | 1.85 | 1.85 | 90 | 1016.8 |
| 20260905151526 | 20 | 136 | 0.0 | 6.4 | 0.03 | 1.85 | 1.85 | 89 | 1017.8 |
| 20260905150003 | 20 | 251 | 3.2 | 8.0 | 0.00 | 1.83 | 1.83 | 89 | 1018.3 |
| 20260905144507 | 19 | 143 | 4.8 | 6.4 | 0.03 | 1.83 | 1.83 | 91 | 1018.3 |
| 20260905143015 | 19 | 227 | 1.6 | 6.4 | 0.18 | 1.83 | 1.83 | 91 | 1018.0 |
| 20260905141527 | 18 | 75 | 1.6 | 4.8 | 1.75 | 1.83 | 1.83 | 92 | 1018.2 |
| 20260905140028 | 18 | 125 | 1.6 | 8.0 | 1.75 | 1.83 | 1.83 | 91 | 1018.7 |
| 20260905134505 | 18 | 349 | 4.8 | 16.1 | 1.80 | 1.80 | 1.80 | 91 | 1018.9 |
| 20260905133013 | 18 | 49 | 3.2 | 32.2 | 1.65 | 1.65 | 1.65 | 91 | 1019.2 |
| 20260905131515 | 18 | 82 | 9.7 | 29.0 | 0.08 | 0.08 | 0.08 | 97 | 1019.1 |
| 20260905130020 | 16 | 259 | 0.0 | 0.0 | 0.08 | 0.08 | 0.08 | 95 | 1017.0 |
| 20260905124531 | 16 | 262 | 0.0 | 0.0 | 0.00 | 0.00 | 0.00 | 95 | 1017.2 |
| 20260905123008 | 16 | 262 | 0.0 | 0.0 | 0.00 | 0.00 | 0.00 | 95 | 1017.2 |
| 20260905121512 | 16 | 257 | 0.0 | 0.0 | 0.00 | 0.00 | 0.00 | 95 | 1017.4 |
| 20260905120019 | 16 | 257 | 0.0 | 0.0 | 0.00 | 0.00 | 0.00 | 95 | 1017.3 |
| 20260905114527 | 16 | 257 | 0.0 | 0.0 | 0.00 | 0.00 | 0.00 | 95 | 1017.2 |